Main page
METAR-TAF:

METAR-TAF

Airports :

Indira Gandhi International Airport

New Delhi, India

latitude: 28-34N, longitude: 077-07E, elevation: 220 m

Current weather observation

The report was made 25 minutes ago, at 19:30 UTC
Wind 6 kt from the East
Temperature 12°C
Humidity 94%
Pressure 1008 hPa
Visibility: 0900 m
Scattered clouds at a height of 3000 ft
Few clouds at a height of 3500 ft, Cumulonimbus.
Overcast at a height of 8000 ft
rain

METAR: VIDP 221930Z 10006KT 0900 R28/2000 R29/1800 RA SCT030 FEW035CB OVC080 12/11 Q1008 NOSIG

Time: 01:25 (19:55 UTC)

Forecast

The report was made 2 hours and 55 minutes ago, at 17:00 UTC
Forecast valid from 22 at 18 UTC to 23 at 03 UTC
Wind 8 kt from the East
Visibility: 1200 m
Scattered clouds at a height of 2500 ft
Overcast at a height of 9000 ft
mist, rain
Temporary
from 22 at 20 UTC to 22 at 24 UTC
Visibility: 0800 m
Few clouds at a height of 3500 ft, Cumulonimbus.
thunderstorm, rain

TAF: VIDP 221700Z 2218/2303 09008KT 1200 BR RA SCT025 OVC090 TEMPO 2220/2224 0800 TSRA FEW035CB

Weather observations and forecasts of more than 4000 airports (METAR and TAF reports).

The available stations are represented by yellow and red dots on the map.

Hover mouse over dot to see the name of the station.

Then click to see weather observations and forecasts.

To change the map : click on the green buttons with a black cross to zoom in, on the green button with a dash to zoom out, or on the green arrows for adjacent maps.


METAR-TAF: